Time;durP1;ratioP1;P1;durP2;ratioP2;P2;SDS_P1;SDS_P2;PMS_P1;PMS_P2;Temp;Humidity;BMP_temperature;BMP_pressure;BME280_temperature;BME280_humidity;BME280_pressure;Samples;Min_cycle;Max_cycle;Signal;HPM_P1;HPM_P2
2021/12/21 00:00:46;;;;;;;10.27;5.25;;;-1.50;99.90;;;;;;5092965;28;20125;-70
2021/12/21 00:03:11;;;;;;;8.88;4.93;;;-1.50;99.90;;;;;;5092295;28;20039;-70
2021/12/21 00:05:38;;;;;;;13.00;5.57;;;-1.50;99.90;;;;;;5126528;27;20052;-72
2021/12/21 00:08:08;;;;;;;7.40;4.45;;;-1.50;99.90;;;;;;5075768;28;20044;-70
2021/12/21 00:10:34;;;;;;;10.02;5.38;;;-1.60;99.90;;;;;;5109537;28;20052;-69
2021/12/21 00:13:04;;;;;;;12.20;5.00;;;-1.60;99.90;;;;;;5092670;28;20043;-72
2021/12/21 00:15:58;;;;;;;10.02;4.90;;;-1.60;99.90;;;;;;5091709;28;20505;-69
2021/12/21 00:19:39;;;;;;;10.35;4.95;;;-1.60;99.90;;;;;;5092501;28;20494;-72
2021/12/21 00:21:37;;;;;;;12.88;5.28;;;-1.60;99.90;;;;;;5078862;28;20054;-73
2021/12/21 00:24:12;;;;;;;9.85;5.15;;;-1.60;99.90;;;;;;5092477;28;20050;-69
2021/12/21 00:26:38;;;;;;;13.38;5.50;;;-1.70;99.90;;;;;;5092421;28;20040;-70
2021/12/21 00:29:03;;;;;;;9.18;4.90;;;-1.70;99.90;;;;;;5092196;28;20039;-70
2021/12/21 00:31:31;;;;;;;9.02;5.00;;;-1.70;99.90;;;;;;5092099;28;20048;-72
2021/12/21 00:33:58;;;;;;;10.88;5.32;;;-1.70;99.90;;;;;;5091771;28;20470;-70
2021/12/21 00:36:26;;;;;;;9.77;4.97;;;-1.70;99.90;;;;;;5092207;28;20044;-70
2021/12/21 00:38:54;;;;;;;11.23;5.45;;;-1.70;99.90;;;;;;5091719;28;20368;-71
2021/12/21 00:41:21;;;;;;;9.10;5.20;;;-1.70;99.90;;;;;;5092097;28;20040;-69
2021/12/21 00:43:49;;;;;;;11.38;4.95;;;-1.70;99.90;;;;;;5091960;28;20055;-69
2021/12/21 00:46:15;;;;;;;12.75;5.28;;;-1.70;99.90;;;;;;5092507;28;20031;-70
2021/12/21 00:48:49;;;;;;;9.52;4.93;;;-1.80;99.90;;;;;;5091787;28;20432;-71
2021/12/21 00:51:15;;;;;;;11.77;5.18;;;-1.80;99.90;;;;;;5075513;28;20040;-70
2021/12/21 00:53:41;;;;;;;11.45;5.05;;;-1.80;99.90;;;;;;5074895;28;20119;-72
2021/12/21 00:56:08;;;;;;;9.48;4.72;;;-1.80;99.90;;;;;;5092494;28;20119;-70
2021/12/21 00:58:33;;;;;;;11.18;5.30;;;-1.80;99.90;;;;;;5075350;28;20046;-68
2021/12/21 01:01:05;;;;;;;8.07;5.10;;;-1.80;99.90;;;;;;5109151;28;20044;-70
2021/12/21 01:03:36;;;;;;;10.05;5.00;;;-1.80;99.90;;;;;;5091636;28;20040;-69
2021/12/21 01:06:19;;;;;;;9.35;4.97;;;-1.80;99.90;;;;;;5091304;28;20036;-70
2021/12/21 01:11:28;;;;;;;10.05;4.90;;;-1.80;99.90;;;;;;5091861;28;20050;-70
2021/12/21 01:14:06;;;;;;;12.63;5.10;;;-1.80;99.90;;;;;;5076147;28;20451;-70
2021/12/21 01:21:32;;;;;;;10.32;4.90;;;-1.90;99.90;;;;;;5090898;28;20493;-70
2021/12/21 01:24:17;;;;;;;8.15;5.13;;;-1.90;99.90;;;;;;5092187;28;20035;-69
2021/12/21 01:36:48;;;;;;;10.77;6.10;;;-2.00;99.90;;;;;;5094928;28;20427;-72
2021/12/21 01:49:31;;;;;;;12.55;6.35;;;-2.00;99.90;;;;;;5095916;28;20048;-73
2021/12/21 01:49:55;;;;;;;12.10;6.20;;;-2.00;99.90;;;;;;5074966;28;20135;-70
2021/12/21 01:52:24;;;;;;;13.57;6.63;;;-2.00;99.90;;;;;;5124976;27;20126;-70
2021/12/21 01:54:51;;;;;;;15.50;7.65;;;-2.00;99.90;;;;;;5112341;28;20470;-71
2021/12/21 01:57:17;;;;;;;14.30;7.47;;;-2.10;99.90;;;;;;5077023;28;20044;-71
2021/12/21 01:59:45;;;;;;;15.05;8.13;;;-2.00;99.90;;;;;;5095466;28;20446;-70
2021/12/21 02:02:13;;;;;;;18.08;8.82;;;-2.10;99.90;;;;;;5094155;28;20428;-70
2021/12/21 02:04:40;;;;;;;17.45;8.60;;;-2.10;99.90;;;;;;5078369;28;20039;-70
2021/12/21 02:07:07;;;;;;;16.20;8.98;;;-2.10;99.90;;;;;;5077925;28;20083;-69
2021/12/21 02:09:39;;;;;;;14.77;8.35;;;-2.10;99.90;;;;;;5094967;28;20072;-70
2021/12/21 02:12:07;;;;;;;15.27;9.50;;;-2.10;99.90;;;;;;5077973;28;20051;-70
2021/12/21 02:14:34;;;;;;;15.60;9.50;;;-2.10;99.90;;;;;;5095477;28;20031;-70
2021/12/21 02:17:33;;;;;;;15.32;9.38;;;-2.10;99.90;;;;;;5094345;28;20047;-70
2021/12/21 02:22:44;;;;;;;17.73;10.23;;;-2.10;99.90;;;;;;5122292;27;20046;-70
2021/12/21 02:27:59;;;;;;;16.77;10.90;;;-2.20;99.90;;;;;;5093973;28;20051;-71
2021/12/21 02:30:26;;;;;;;19.08;11.02;;;-2.20;99.90;;;;;;5094930;28;20070;-68
2021/12/21 02:32:52;;;;;;;19.23;11.35;;;-2.20;99.90;;;;;;5094703;28;20101;-70
2021/12/21 02:35:18;;;;;;;18.90;10.85;;;-2.20;99.90;;;;;;5094392;28;20040;-70
2021/12/21 02:37:45;;;;;;;18.80;11.18;;;-2.20;99.90;;;;;;5092800;28;20070;-69
2021/12/21 02:40:12;;;;;;;19.80;11.80;;;-2.20;99.90;;;;;;5095150;28;20040;-71
2021/12/21 02:42:37;;;;;;;17.63;10.55;;;-2.20;99.90;;;;;;5094121;28;20384;-70
2021/12/21 02:45:05;;;;;;;18.92;11.77;;;-2.20;99.90;;;;;;5094913;28;20465;-70
2021/12/21 02:47:30;;;;;;;18.13;10.68;;;-2.20;99.90;;;;;;5094089;28;20093;-72
2021/12/21 02:49:56;;;;;;;18.00;10.70;;;-2.20;99.90;;;;;;5094580;28;20040;-69
2021/12/21 02:52:22;;;;;;;17.52;10.63;;;-2.30;99.90;;;;;;5093750;28;20375;-69
2021/12/21 02:54:48;;;;;;;16.65;10.63;;;-2.30;99.90;;;;;;5128434;27;20043;-70
2021/12/21 02:57:14;;;;;;;17.35;11.02;;;-2.30;99.90;;;;;;5094148;28;20131;-72
2021/12/21 02:59:39;;;;;;;17.65;10.50;;;-2.30;99.90;;;;;;5093844;28;20424;-71
2021/12/21 03:02:05;;;;;;;17.23;9.73;;;-2.30;99.90;;;;;;5093471;28;20482;-69
2021/12/21 03:04:31;;;;;;;15.98;10.30;;;-2.30;99.90;;;;;;5093977;28;20118;-70
2021/12/21 03:11:56;;;;;;;18.80;10.20;;;-2.30;99.90;;;;;;5093786;28;20055;-73
2021/12/21 03:14:26;;;;;;;16.63;10.75;;;-2.40;99.90;;;;;;5093878;28;20052;-68
2021/12/21 03:16:53;;;;;;;19.00;10.95;;;-2.40;99.90;;;;;;5093769;28;20052;-70
2021/12/21 03:19:19;;;;;;;14.60;10.52;;;-2.40;99.90;;;;;;5093446;28;20051;-70
2021/12/21 03:21:45;;;;;;;17.60;11.07;;;-2.40;99.90;;;;;;5092995;28;20048;-72
2021/12/21 03:24:11;;;;;;;14.90;10.52;;;-2.40;99.90;;;;;;5093633;28;20040;-70
2021/12/21 03:26:37;;;;;;;19.02;10.52;;;-2.40;99.90;;;;;;5093656;28;20123;-71
2021/12/21 03:29:05;;;;;;;19.17;10.82;;;-2.50;99.90;;;;;;5093616;28;20039;-69
2021/12/21 03:31:31;;;;;;;24.05;11.20;;;-2.40;99.90;;;;;;5093083;28;20048;-70
2021/12/21 03:33:57;;;;;;;16.88;11.18;;;-2.40;99.90;;;;;;5092829;28;20050;-73
2021/12/21 03:36:22;;;;;;;18.05;10.93;;;-2.40;99.90;;;;;;5091888;28;20036;-71
2021/12/21 03:38:59;;;;;;;16.23;10.70;;;-2.50;99.90;;;;;;5076570;28;20032;-70
2021/12/21 03:41:26;;;;;;;18.20;10.90;;;-2.50;99.90;;;;;;5112044;27;20044;-70
2021/12/21 03:43:52;;;;;;;16.55;10.05;;;-2.50;99.90;;;;;;5093462;28;20466;-69
2021/12/21 03:46:23;;;;;;;17.30;10.98;;;-2.50;99.90;;;;;;5093187;28;20436;-70
2021/12/21 03:48:49;;;;;;;17.35;10.20;;;-2.50;99.90;;;;;;5076016;28;20078;-71
2021/12/21 03:51:17;;;;;;;20.88;10.93;;;-2.50;99.90;;;;;;5093213;28;20059;-72
2021/12/21 03:53:44;;;;;;;20.45;11.45;;;-2.50;99.90;;;;;;5093290;28;20052;-70
2021/12/21 03:58:41;;;;;;;14.00;10.32;;;-2.50;99.90;;;;;;5093077;28;20467;-69
2021/12/21 04:01:07;;;;;;;19.10;10.88;;;-2.50;99.90;;;;;;5092125;28;20036;-70
2021/12/21 04:03:33;;;;;;;14.98;11.00;;;-2.50;99.90;;;;;;5092907;28;20066;-70
2021/12/21 04:05:58;;;;;;;17.60;10.70;;;-2.50;99.90;;;;;;5075903;28;20386;-69
2021/12/21 04:08:24;;;;;;;17.92;10.90;;;-2.50;99.90;;;;;;5092585;28;20123;-72
2021/12/21 04:10:50;;;;;;;18.38;11.27;;;-2.50;99.90;;;;;;5092896;28;20044;-70
2021/12/21 04:13:15;;;;;;;17.27;10.88;;;-2.60;99.90;;;;;;5092874;28;20470;-70
2021/12/21 04:15:44;;;;;;;21.90;11.73;;;-2.60;99.90;;;;;;5092716;28;20044;-70
2021/12/21 04:18:11;;;;;;;17.92;11.10;;;-2.60;99.90;;;;;;5072349;28;20044;-69
2021/12/21 04:20:38;;;;;;;17.08;11.05;;;-2.60;99.90;;;;;;5107424;28;20417;-72
2021/12/21 04:23:04;;;;;;;18.33;10.63;;;-2.60;99.90;;;;;;5093033;28;20044;-73
2021/12/21 04:25:30;;;;;;;16.92;10.73;;;-2.60;99.90;;;;;;5092393;28;20474;-70
2021/12/21 04:27:55;;;;;;;16.17;10.68;;;-2.60;99.90;;;;;;5092001;28;20040;-71
2021/12/21 04:30:22;;;;;;;15.75;10.77;;;-2.70;99.90;;;;;;5092515;28;20122;-69
2021/12/21 04:32:47;;;;;;;16.38;11.10;;;-2.60;99.90;;;;;;5091985;28;20452;-69
2021/12/21 04:35:18;;;;;;;16.20;10.77;;;-2.70;99.90;;;;;;5093332;28;20545;-70
2021/12/21 04:37:55;;;;;;;18.77;11.30;;;-2.70;99.90;;;;;;5091962;28;20127;-70
2021/12/21 04:40:25;;;;;;;18.88;10.48;;;-2.70;99.90;;;;;;5091652;28;20032;-70
2021/12/21 04:42:51;;;;;;;16.77;10.40;;;-2.70;99.90;;;;;;5091963;28;20067;-71
2021/12/21 04:45:17;;;;;;;17.27;10.65;;;-2.70;99.90;;;;;;5092348;28;20048;-74
2021/12/21 04:47:43;;;;;;;17.10;9.93;;;-2.70;99.90;;;;;;5075469;28;20047;-69
2021/12/21 04:50:12;;;;;;;17.58;10.60;;;-2.70;99.90;;;;;;5092269;28;20032;-70
2021/12/21 04:52:37;;;;;;;16.20;9.97;;;-2.70;99.90;;;;;;5091496;28;20462;-70
2021/12/21 04:55:04;;;;;;;17.50;10.63;;;-2.70;99.90;;;;;;5075356;28;20085;-70
2021/12/21 04:57:30;;;;;;;17.08;10.20;;;-2.70;99.90;;;;;;5091960;28;20062;-71
2021/12/21 04:59:55;;;;;;;18.63;10.63;;;-2.70;99.90;;;;;;5075295;28;20036;-69
2021/12/21 05:02:21;;;;;;;16.92;10.20;;;-2.80;99.90;;;;;;5130221;27;20048;-70
2021/12/21 05:04:46;;;;;;;18.95;10.48;;;-2.80;99.90;;;;;;5097069;28;20097;-70
2021/12/21 05:07:16;;;;;;;14.93;10.38;;;-2.80;99.90;;;;;;5130354;27;20044;-70
2021/12/21 05:09:44;;;;;;;23.17;11.23;;;-2.80;99.90;;;;;;5095923;28;20040;-70
2021/12/21 05:12:13;;;;;;;19.88;11.40;;;-2.80;99.90;;;;;;5095810;28;20054;-70
2021/12/21 05:14:39;;;;;;;20.08;11.10;;;-2.80;99.90;;;;;;5096487;28;20474;-70
2021/12/21 05:17:05;;;;;;;19.65;10.45;;;-2.80;99.90;;;;;;5096039;28;20040;-73
2021/12/21 05:19:32;;;;;;;18.08;11.43;;;-2.80;99.90;;;;;;5096660;28;20048;-70
2021/12/21 05:21:57;;;;;;;21.10;11.23;;;-2.80;99.90;;;;;;5095739;28;20044;-71
2021/12/21 05:24:23;;;;;;;20.50;11.13;;;-2.80;99.90;;;;;;5129804;27;20121;-72
2021/12/21 05:26:49;;;;;;;19.58;11.30;;;-2.80;99.90;;;;;;5095487;28;20036;-70
2021/12/21 05:29:15;;;;;;;19.48;11.40;;;-2.80;99.90;;;;;;5092179;28;20131;-70
2021/12/21 05:31:41;;;;;;;20.48;11.38;;;-2.90;99.90;;;;;;5095558;28;20074;-69
2021/12/21 05:34:06;;;;;;;16.95;10.65;;;-2.90;99.90;;;;;;5095808;28;20063;-69
2021/12/21 05:36:32;;;;;;;18.60;11.02;;;-2.80;99.90;;;;;;5078954;28;20047;-70
2021/12/21 05:39:02;;;;;;;18.92;10.68;;;-2.90;99.90;;;;;;5094891;28;20039;-70
2021/12/21 05:41:45;;;;;;;20.02;10.80;;;-2.90;99.90;;;;;;5094693;28;20505;-70
2021/12/21 05:44:11;;;;;;;20.90;11.38;;;-2.90;99.90;;;;;;5096165;28;20043;-72
2021/12/21 05:46:37;;;;;;;17.17;11.07;;;-2.90;99.90;;;;;;5095517;28;20367;-70
2021/12/21 05:49:02;;;;;;;16.77;11.35;;;-2.90;99.90;;;;;;5094585;28;20101;-69
2021/12/21 05:51:28;;;;;;;16.70;10.43;;;-2.90;99.90;;;;;;5112185;28;20390;-70
2021/12/21 05:53:54;;;;;;;20.45;10.57;;;-2.90;99.90;;;;;;5129121;27;20028;-70
2021/12/21 05:56:19;;;;;;;17.58;11.15;;;-2.90;99.90;;;;;;5095532;28;20043;-69
2021/12/21 05:58:45;;;;;;;17.48;11.52;;;-2.90;99.90;;;;;;5095339;28;20044;-69
2021/12/21 06:01:14;;;;;;;21.52;12.02;;;-2.90;99.90;;;;;;5096022;28;20386;-69
2021/12/21 06:03:39;;;;;;;15.82;11.38;;;-2.90;99.90;;;;;;5078158;28;20138;-72
2021/12/21 06:06:11;;;;;;;18.88;11.00;;;-3.00;99.90;;;;;;5094693;28;20036;-72
2021/12/21 06:08:36;;;;;;;19.38;11.43;;;-3.00;99.90;;;;;;5095115;28;20078;-69
2021/12/21 06:11:05;;;;;;;17.70;11.52;;;-3.00;99.90;;;;;;5094520;28;20064;-70
2021/12/21 06:27:14;;;;;;;18.08;12.40;;;-3.00;99.90;;;;;;5002300;28;20132;-73
2021/12/21 06:29:41;;;;;;;20.83;12.35;;;-3.10;99.90;;;;;;5036625;28;20232;-70
2021/12/21 06:32:07;;;;;;;22.05;13.10;;;-3.00;99.90;;;;;;5036813;28;20064;-70
2021/12/21 06:34:33;;;;;;;21.17;12.98;;;-3.10;99.90;;;;;;5020130;28;20051;-70
2021/12/21 06:36:59;;;;;;;22.05;12.68;;;-3.10;99.90;;;;;;5036214;28;20048;-74
2021/12/21 06:39:28;;;;;;;19.83;12.90;;;-3.10;99.90;;;;;;5069945;28;20094;-70
2021/12/21 06:41:54;;;;;;;18.92;11.80;;;-3.10;99.90;;;;;;5036257;28;20537;-69
2021/12/21 06:44:20;;;;;;;19.85;11.32;;;-3.10;99.90;;;;;;5052974;28;20048;-69
2021/12/21 06:47:03;;;;;;;23.42;12.25;;;-3.10;99.90;;;;;;5052706;28;20049;-70
2021/12/21 06:52:15;;;;;;;15.50;10.65;;;-3.10;99.90;;;;;;5045626;28;20475;-72
2021/12/21 06:54:41;;;;;;;19.92;10.85;;;-3.10;99.90;;;;;;5080670;28;20043;-74
2021/12/21 06:57:06;;;;;;;16.83;11.30;;;-3.10;99.90;;;;;;5076814;28;20048;-70
2021/12/21 06:59:34;;;;;;;17.88;11.52;;;-3.10;99.90;;;;;;5093994;28;20032;-71
2021/12/21 07:01:59;;;;;;;17.02;11.18;;;-3.10;99.90;;;;;;5094356;28;20093;-69
2021/12/21 07:04:25;;;;;;;19.08;11.40;;;-3.10;99.90;;;;;;5094298;28;20040;-71
2021/12/21 07:06:53;;;;;;;15.55;10.60;;;-3.20;99.90;;;;;;5094068;28;20036;-69
2021/12/21 07:09:30;;;;;;;20.52;11.85;;;-3.20;99.90;;;;;;5094335;28;20043;-69
2021/12/21 07:12:15;;;;;;;15.60;10.70;;;-3.20;99.90;;;;;;5094407;28;20091;-70
2021/12/21 07:20:10;;;;;;;18.48;10.23;;;-3.20;99.90;;;;;;5094088;28;20067;-71
2021/12/21 07:22:35;;;;;;;20.52;10.35;;;-3.20;99.90;;;;;;5093570;28;20044;-72
2021/12/21 07:25:03;;;;;;;16.17;10.50;;;-3.20;99.90;;;;;;5093372;28;20028;-70
2021/12/21 07:27:28;;;;;;;16.08;10.15;;;-3.20;99.90;;;;;;5094056;28;20075;-72
2021/12/21 07:29:54;;;;;;;16.45;11.13;;;-3.20;99.90;;;;;;5093496;28;20083;-70
2021/12/21 07:32:19;;;;;;;16.67;10.98;;;-3.20;99.90;;;;;;5094103;28;20048;-69
2021/12/21 07:34:45;;;;;;;17.25;10.98;;;-3.20;99.90;;;;;;5093581;28;20047;-69
2021/12/21 07:37:11;;;;;;;19.42;10.80;;;-3.20;99.90;;;;;;5076777;28;20036;-70
2021/12/21 07:39:37;;;;;;;18.75;10.65;;;-3.30;99.90;;;;;;5076983;28;20084;-70
2021/12/21 07:42:05;;;;;;;18.40;10.95;;;-3.30;99.90;;;;;;5093331;28;20036;-69
2021/12/21 07:44:30;;;;;;;19.20;10.10;;;-3.30;99.90;;;;;;5075953;28;20043;-69
2021/12/21 07:46:56;;;;;;;16.08;9.82;;;-3.30;99.90;;;;;;5127295;27;20047;-70
2021/12/21 07:49:22;;;;;;;19.10;11.20;;;-3.30;99.90;;;;;;5093469;28;20059;-70
2021/12/21 07:51:48;;;;;;;15.35;10.73;;;-3.20;99.90;;;;;;5093542;28;20386;-73
2021/12/21 07:54:15;;;;;;;18.48;11.07;;;-3.30;99.90;;;;;;5093227;28;20048;-70
2021/12/21 07:56:41;;;;;;;15.55;10.40;;;-3.30;99.90;;;;;;5076297;28;20097;-70
2021/12/21 07:59:06;;;;;;;17.58;10.27;;;-3.30;99.90;;;;;;5092888;28;20127;-71
2021/12/21 08:01:32;;;;;;;15.75;9.93;;;-3.30;99.90;;;;;;5127088;27;20122;-69
2021/12/21 08:03:59;;;;;;;20.05;11.27;;;-3.30;99.90;;;;;;5093196;28;20075;-70
2021/12/21 08:06:30;;;;;;;17.85;11.35;;;-3.30;99.90;;;;;;5093324;28;20132;-73
2021/12/21 08:08:55;;;;;;;17.52;10.98;;;-3.30;99.90;;;;;;5093180;28;20047;-72
2021/12/21 08:12:10;;;;;;;21.63;12.85;;;-3.20;99.90;;;;;;5110141;28;20044;-71
2021/12/21 08:14:13;;;;;;;21.98;14.07;;;-3.30;99.90;;;;;;5092337;28;20047;-72
2021/12/21 08:16:38;;;;;;;25.05;14.45;;;-3.30;99.90;;;;;;5093394;28;20036;-70
2021/12/21 08:19:04;;;;;;;24.65;14.27;;;-3.30;99.90;;;;;;5092301;28;20116;-70
2021/12/21 08:21:30;;;;;;;21.90;12.90;;;-3.20;99.90;;;;;;5126901;27;20050;-71
2021/12/21 08:23:57;;;;;;;19.88;12.65;;;-3.20;99.90;;;;;;5075750;28;20050;-70
2021/12/21 08:26:23;;;;;;;20.35;12.73;;;-3.20;99.90;;;;;;5075940;28;20086;-74
2021/12/21 08:28:49;;;;;;;18.23;12.57;;;-3.20;99.90;;;;;;5091957;28;20071;-72
2021/12/21 08:31:16;;;;;;;22.77;13.88;;;-3.20;99.90;;;;;;5076165;28;20035;-71
2021/12/21 08:33:42;;;;;;;21.33;14.30;;;-3.20;99.90;;;;;;5076265;28;20067;-71
2021/12/21 08:36:10;;;;;;;24.75;15.30;;;-3.10;99.90;;;;;;5091919;28;20123;-71
2021/12/21 08:38:42;;;;;;;26.42;15.88;;;-3.10;99.90;;;;;;5092479;28;20036;-70
2021/12/21 08:41:08;;;;;;;26.73;16.77;;;-3.10;99.90;;;;;;5076417;28;20040;-73
2021/12/21 08:43:35;;;;;;;28.60;17.48;;;-3.10;99.90;;;;;;5092436;28;20534;-74
2021/12/21 08:46:01;;;;;;;33.38;20.42;;;-3.00;99.90;;;;;;5092219;28;20486;-71
2021/12/21 08:48:27;;;;;;;33.78;19.75;;;-3.00;99.90;;;;;;5075657;28;20093;-71
2021/12/21 08:50:55;;;;;;;35.50;19.95;;;-3.00;99.90;;;;;;5075747;28;20047;-70
2021/12/21 08:53:23;;;;;;;31.98;20.00;;;-2.90;99.90;;;;;;5092179;28;20032;-71
2021/12/21 08:55:51;;;;;;;34.63;20.17;;;-2.90;99.90;;;;;;5093239;28;20074;-71
2021/12/21 08:58:17;;;;;;;36.92;20.80;;;-2.90;99.90;;;;;;5093011;28;20036;-72
2021/12/21 09:00:43;;;;;;;35.03;21.05;;;-2.80;99.90;;;;;;5075611;28;20040;-71
2021/12/21 09:03:10;;;;;;;38.17;20.98;;;-2.80;99.90;;;;;;5126190;28;20051;-74
2021/12/21 09:05:37;;;;;;;40.15;21.52;;;-2.80;99.90;;;;;;5092395;28;20079;-72
2021/12/21 09:08:04;;;;;;;34.13;20.73;;;-2.80;99.90;;;;;;5092060;28;20487;-70
2021/12/21 09:10:30;;;;;;;39.63;20.90;;;-2.80;99.90;;;;;;5092664;28;20123;-72
2021/12/21 09:12:57;;;;;;;38.15;21.77;;;-2.80;99.90;;;;;;5092198;28;20047;-72
2021/12/21 09:15:27;;;;;;;35.13;22.27;;;-2.70;99.90;;;;;;5075085;28;20040;-71
2021/12/21 09:17:53;;;;;;;36.38;21.48;;;-2.70;99.90;;;;;;5092044;28;20051;-71
2021/12/21 09:20:21;;;;;;;34.30;20.88;;;-2.60;99.90;;;;;;5091877;28;20059;-73
2021/12/21 09:22:49;;;;;;;29.42;19.77;;;-2.60;99.90;;;;;;5091323;28;20048;-71
2021/12/21 09:25:16;;;;;;;28.60;17.75;;;-2.50;99.90;;;;;;5091386;28;20060;-70
2021/12/21 09:27:42;;;;;;;32.65;17.63;;;-2.50;99.90;;;;;;5075416;28;20039;-70
2021/12/21 09:30:11;;;;;;;26.40;16.35;;;-2.40;99.90;;;;;;5092425;28;20127;-70
2021/12/21 09:32:37;;;;;;;24.00;15.75;;;-2.30;99.90;;;;;;5092252;28;20052;-70
2021/12/21 09:35:04;;;;;;;26.05;15.98;;;-2.30;99.90;;;;;;5074933;28;20051;-70
2021/12/21 09:37:31;;;;;;;24.15;16.33;;;-2.20;99.90;;;;;;5075320;28;20471;-69
2021/12/21 09:39:57;;;;;;;26.20;16.60;;;-2.10;99.90;;;;;;5092197;28;20047;-70
2021/12/21 09:42:26;;;;;;;25.40;16.38;;;-2.10;99.90;;;;;;5075128;28;20039;-70
2021/12/21 09:44:53;;;;;;;26.15;16.17;;;-1.90;99.90;;;;;;5074969;28;20040;-69
2021/12/21 09:47:19;;;;;;;25.95;17.08;;;-1.80;99.90;;;;;;5077086;28;20479;-70
2021/12/21 09:49:47;;;;;;;25.23;16.92;;;-1.60;99.90;;;;;;5078512;28;20044;-70
2021/12/21 09:52:18;;;;;;;35.85;20.85;;;-1.50;99.90;;;;;;5096058;28;20044;-72
2021/12/21 09:54:44;;;;;;;36.05;20.73;;;-1.50;99.90;;;;;;5096224;28;20040;-70
2021/12/21 09:57:16;;;;;;;31.88;22.55;;;-1.50;99.90;;;;;;5095658;28;20043;-70
2021/12/21 09:59:43;;;;;;;32.20;21.40;;;-1.50;99.90;;;;;;5095638;28;20048;-70
2021/12/21 10:02:08;;;;;;;31.52;20.85;;;-1.40;99.90;;;;;;5095038;28;20043;-70
2021/12/21 10:04:45;;;;;;;31.95;22.88;;;-1.30;99.90;;;;;;5077754;28;20028;-73
2021/12/21 10:07:13;;;;;;;34.00;20.30;;;-1.20;99.90;;;;;;5078826;28;20040;-69
2021/12/21 10:09:43;;;;;;;36.40;23.48;;;-1.20;99.90;;;;;;5078479;28;20469;-70
2021/12/21 10:12:29;;;;;;;;;;;-1.10;99.90;;;;;;5078941;28;20501;-69
2021/12/21 10:15:08;;;;;;;33.15;23.17;;;-1.00;99.90;;;;;;5094429;28;19924;-70
2021/12/21 10:17:35;;;;;;;33.67;22.73;;;-0.90;99.90;;;;;;5094988;28;20114;-72
2021/12/21 10:20:07;;;;;;;32.53;23.15;;;-0.80;99.90;;;;;;5094699;28;20047;-70
2021/12/21 10:22:33;;;;;;;40.20;26.30;;;-0.80;99.90;;;;;;5077676;28;20486;-70
2021/12/21 10:24:59;;;;;;;38.03;26.95;;;-0.60;99.90;;;;;;5094332;28;20048;-72
2021/12/21 10:27:25;;;;;;;38.25;26.38;;;-0.50;99.90;;;;;;5129074;27;20044;-70
2021/12/21 10:29:57;;;;;;;36.97;25.50;;;-0.40;99.90;;;;;;5095148;28;20044;-70
2021/12/21 10:32:32;;;;;;;39.25;25.52;;;-0.20;99.90;;;;;;5080178;28;20079;-71
2021/12/21 10:34:59;;;;;;;45.85;29.75;;;0.10;99.90;;;;;;5075013;28;20036;-71
2021/12/21 10:37:31;;;;;;;53.25;33.97;;;0.90;99.90;;;;;;5094110;28;20051;-70
2021/12/21 10:40:03;;;;;;;52.03;35.42;;;1.40;99.90;;;;;;5093486;28;20036;-72
2021/12/21 10:42:28;;;;;;;50.35;35.05;;;1.60;99.90;;;;;;5093680;28;20542;-73
2021/12/21 10:45:03;;;;;;;52.75;35.85;;;1.90;99.90;;;;;;5093913;28;20051;-70
2021/12/21 10:47:33;;;;;;;57.83;35.30;;;2.40;99.90;;;;;;5092633;28;20043;-74
2021/12/21 10:49:59;;;;;;;52.20;34.88;;;2.90;99.90;;;;;;5093425;28;20498;-71
2021/12/21 10:52:25;;;;;;;44.65;30.20;;;3.30;99.90;;;;;;5077102;28;20043;-71
2021/12/21 10:54:51;;;;;;;42.50;30.17;;;3.20;99.90;;;;;;5093861;28;20036;-71
2021/12/21 10:57:20;;;;;;;40.72;28.90;;;2.80;99.90;;;;;;5093777;28;20071;-74
2021/12/21 10:59:47;;;;;;;;;;;2.40;99.90;;;;;;5092808;28;20428;-71
2021/12/21 11:02:30;;;;;;;40.20;28.08;;;2.20;99.90;;;;;;5076172;28;20354;-71
2021/12/21 11:05:15;;;;;;;38.15;26.35;;;2.00;99.90;;;;;;5092801;28;20039;-73
2021/12/21 11:10:14;;;;;;;36.63;26.40;;;1.70;99.90;;;;;;5092980;28;20065;-71
2021/12/21 11:13:05;;;;;;;39.95;25.98;;;1.70;99.90;;;;;;5093592;28;20055;-72
2021/12/21 11:15:55;;;;;;;38.95;24.70;;;1.80;99.90;;;;;;5093334;28;20039;-71
2021/12/21 11:18:23;;;;;;;36.83;24.67;;;1.90;99.90;;;;;;5092751;28;20123;-71
2021/12/21 11:20:52;;;;;;;37.58;25.00;;;2.30;99.90;;;;;;5092689;28;20045;-71
2021/12/21 11:23:22;;;;;;;33.95;23.80;;;2.50;99.90;;;;;;5073048;28;20131;-72
2021/12/21 11:25:49;;;;;;;37.00;26.65;;;2.50;99.90;;;;;;5078505;28;20124;-72
2021/12/21 11:28:19;;;;;;;36.22;25.00;;;2.60;99.90;;;;;;5076130;28;20094;-71
2021/12/21 11:30:45;;;;;;;36.80;25.90;;;2.70;99.90;;;;;;5092647;28;20494;-71
2021/12/21 11:33:13;;;;;;;34.53;24.45;;;2.80;99.90;;;;;;5093163;28;20035;-72
2021/12/21 11:38:11;;;;;;;33.25;23.80;;;3.50;99.90;;;;;;5092320;28;20055;-72
2021/12/21 11:40:43;;;;;;;32.42;23.70;;;3.70;99.90;;;;;;5092810;28;20040;-71
2021/12/21 11:43:21;;;;;;;33.15;23.95;;;4.10;99.90;;;;;;5092425;28;20084;-71
2021/12/21 11:45:49;;;;;;;38.28;23.80;;;4.40;99.90;;;;;;5109654;28;20044;-71
2021/12/21 11:48:15;;;;;;;34.97;22.48;;;4.80;99.90;;;;;;5092719;28;20044;-71
2021/12/21 11:50:49;;;;;;;31.48;21.27;;;5.20;99.90;;;;;;5092666;28;20127;-71
2021/12/21 11:53:18;;;;;;;29.58;21.08;;;5.60;99.90;;;;;;5092540;28;20122;-71
2021/12/21 11:55:47;;;;;;;31.85;19.83;;;6.00;99.90;;;;;;5092278;28;20058;-71
2021/12/21 11:58:35;;;;;;;28.20;21.43;;;6.30;99.90;;;;;;5092330;28;20039;-70
2021/12/21 12:01:05;;;;;;;31.85;21.20;;;6.30;99.90;;;;;;5092538;28;20036;-70
2021/12/21 12:03:36;;;;;;;36.40;21.45;;;6.00;99.90;;;;;;5092478;28;20070;-71
2021/12/21 12:06:11;;;;;;;29.38;20.10;;;5.80;99.90;;;;;;5091836;28;20039;-71
2021/12/21 12:08:57;;;;;;;28.65;20.63;;;5.80;99.90;;;;;;5091676;28;20051;-71
2021/12/21 12:11:43;;;;;;;28.85;19.77;;;6.10;99.90;;;;;;5092290;28;20054;-71
2021/12/21 12:14:11;;;;;;;33.00;20.83;;;6.50;99.90;;;;;;5091436;28;20092;-71
2021/12/21 12:16:41;;;;;;;32.80;20.67;;;6.70;99.90;;;;;;5091639;28;20612;-71
2021/12/21 12:19:13;;;;;;;30.40;20.92;;;6.90;99.90;;;;;;5091894;28;20040;-70
2021/12/21 12:21:49;;;;;;;30.63;20.40;;;6.70;99.90;;;;;;5091579;28;20047;-72
2021/12/21 12:24:20;;;;;;;28.08;19.23;;;6.70;99.90;;;;;;5092186;28;20058;-73
2021/12/21 12:26:57;;;;;;;26.98;19.15;;;6.80;99.90;;;;;;5091870;28;20328;-70
2021/12/21 12:29:23;;;;;;;26.60;17.73;;;6.80;99.90;;;;;;5091861;28;20470;-70
2021/12/21 12:32:07;;;;;;;27.02;18.98;;;7.00;99.90;;;;;;5091752;28;20032;-73
2021/12/21 12:34:36;;;;;;;29.85;19.35;;;7.00;99.90;;;;;;5092086;28;20470;-71
2021/12/21 12:37:18;;;;;;;28.48;17.90;;;6.80;99.90;;;;;;5091619;28;20046;-71
2021/12/21 12:39:46;;;;;;;25.35;17.85;;;6.50;99.90;;;;;;5092020;28;20146;-71
2021/12/21 12:42:17;;;;;;;29.38;17.88;;;6.40;99.90;;;;;;5091568;28;20060;-71
2021/12/21 12:44:43;;;;;;;30.10;17.42;;;6.60;99.90;;;;;;5074671;28;20088;-71
2021/12/21 12:47:11;;;;;;;27.77;18.85;;;7.10;99.90;;;;;;5091746;28;20036;-73
2021/12/21 12:49:42;;;;;;;28.63;19.35;;;7.40;99.90;;;;;;5125837;27;20170;-71
2021/12/21 12:52:15;;;;;;;27.23;18.27;;;7.60;99.90;;;;;;5091152;28;20410;-71
2021/12/21 12:54:59;;;;;;;30.35;19.08;;;7.80;99.90;;;;;;5091741;28;20044;-74
2021/12/21 12:57:29;;;;;;;31.13;18.98;;;7.90;99.90;;;;;;5091749;28;20137;-72
2021/12/21 13:00:06;;;;;;;27.60;17.80;;;7.90;99.90;;;;;;5091713;28;20044;-71
2021/12/21 13:02:31;;;;;;;28.83;17.70;;;8.10;99.90;;;;;;5091075;28;20058;-71
2021/12/21 13:04:58;;;;;;;26.15;18.25;;;8.10;99.90;;;;;;5091381;28;20048;-71
2021/12/21 13:07:27;;;;;;;31.48;19.20;;;8.10;99.90;;;;;;5091337;28;20479;-71
2021/12/21 13:10:10;;;;;;;27.90;18.73;;;8.10;99.90;;;;;;5091337;28;20587;-71
2021/12/21 13:12:37;;;;;;;30.95;17.58;;;7.80;99.90;;;;;;5091179;28;20043;-71
2021/12/21 13:15:06;;;;;;;26.75;17.55;;;7.50;99.90;;;;;;5091406;28;20101;-71
2021/12/21 13:17:31;;;;;;;26.75;18.23;;;7.00;99.90;;;;;;5090289;28;20075;-72
2021/12/21 13:19:57;;;;;;;27.98;18.27;;;6.50;99.90;;;;;;5090801;28;20157;-73
2021/12/21 13:22:25;;;;;;;26.10;17.35;;;6.10;99.90;;;;;;5092657;28;20428;-73
2021/12/21 13:24:52;;;;;;;30.45;17.60;;;5.70;99.90;;;;;;5095271;28;20040;-70
2021/12/21 13:27:20;;;;;;;25.13;18.10;;;5.40;99.90;;;;;;5094929;28;20044;-71
2021/12/21 13:29:47;;;;;;;26.73;17.10;;;5.20;99.90;;;;;;5095210;28;20066;-72
2021/12/21 13:32:15;;;;;;;28.58;16.45;;;4.90;99.90;;;;;;5095599;28;20043;-71
2021/12/21 13:34:44;;;;;;;29.75;18.10;;;4.70;99.90;;;;;;5095136;28;20052;-71
2021/12/21 13:37:16;;;;;;;24.70;17.70;;;4.60;99.90;;;;;;5095379;28;20051;-71
2021/12/21 13:39:56;;;;;;;26.17;17.80;;;4.50;99.90;;;;;;5095234;28;20494;-73
2021/12/21 13:42:25;;;;;;;30.25;18.08;;;4.30;99.90;;;;;;5094225;28;20036;-71
2021/12/21 13:45:00;;;;;;;29.38;18.58;;;4.20;99.90;;;;;;5093797;28;20046;-71
2021/12/21 13:47:50;;;;;;;26.15;17.58;;;4.10;99.90;;;;;;5094944;28;20394;-70